sensor_id;sensor_type;location;lat;lon;timestamp;pressure;altitude;pressure_sealevel;temperature;humidity
43683;BME280;29285;52.128;21.060;2024-03-29T00:02:44;98602.44;;;10.32;100.00
43683;BME280;29285;52.128;21.060;2024-03-29T00:07:45;98620.15;;;10.28;100.00
43683;BME280;29285;52.128;21.060;2024-03-29T00:12:46;98632.63;;;10.19;100.00
43683;BME280;29285;52.128;21.060;2024-03-29T00:17:47;98643.04;;;10.10;100.00
43683;BME280;29285;52.128;21.060;2024-03-29T00:22:48;98657.12;;;9.96;100.00
43683;BME280;29285;52.128;21.060;2024-03-29T00:27:49;98665.34;;;9.89;100.00
43683;BME280;29285;52.128;21.060;2024-03-29T00:32:50;98669.64;;;9.73;100.00
43683;BME280;29285;52.128;21.060;2024-03-29T00:37:51;98682.63;;;9.55;100.00
43683;BME280;29285;52.128;21.060;2024-03-29T00:42:53;98686.94;;;9.46;100.00
43683;BME280;29285;52.128;21.060;2024-03-29T00:47:54;98695.77;;;9.37;100.00
43683;BME280;29285;52.128;21.060;2024-03-29T00:52:55;98699.94;;;9.31;100.00
43683;BME280;29285;52.128;21.060;2024-03-29T00:57:56;98707.98;;;9.29;100.00
43683;BME280;29285;52.128;21.060;2024-03-29T01:02:57;98720.70;;;9.32;100.00
43683;BME280;29285;52.128;21.060;2024-03-29T01:07:59;98732.77;;;9.37;100.00
43683;BME280;29285;52.128;21.060;2024-03-29T01:13:00;98743.66;;;9.43;100.00
43683;BME280;29285;52.128;21.060;2024-03-29T01:18:01;98752.66;;;9.48;100.00
43683;BME280;29285;52.128;21.060;2024-03-29T01:23:02;98767.88;;;9.48;100.00
43683;BME280;29285;52.128;21.060;2024-03-29T01:28:04;98778.50;;;9.46;100.00
43683;BME280;29285;52.128;21.060;2024-03-29T01:33:05;98786.96;;;9.47;100.00
43683;BME280;29285;52.128;21.060;2024-03-29T01:38:06;98795.94;;;9.48;100.00
43683;BME280;29285;52.128;21.060;2024-03-29T01:43:07;98801.52;;;9.51;100.00
43683;BME280;29285;52.128;21.060;2024-03-29T01:48:09;98810.16;;;9.56;100.00
43683;BME280;29285;52.128;21.060;2024-03-29T01:53:11;98824.31;;;9.62;100.00
43683;BME280;29285;52.128;21.060;2024-03-29T01:58:13;98836.66;;;9.66;100.00
43683;BME280;29285;52.128;21.060;2024-03-29T02:03:33;98847.07;;;9.65;100.00
43683;BME280;29285;52.128;21.060;2024-03-29T02:08:35;98850.11;;;9.67;100.00
43683;BME280;29285;52.128;21.060;2024-03-29T02:13:36;98858.88;;;9.70;100.00
43683;BME280;29285;52.128;21.060;2024-03-29T02:18:38;98863.59;;;9.73;100.00
43683;BME280;29285;52.128;21.060;2024-03-29T02:23:45;98867.85;;;9.75;100.00
43683;BME280;29285;52.128;21.060;2024-03-29T02:28:47;98873.83;;;9.82;100.00
43683;BME280;29285;52.128;21.060;2024-03-29T02:33:48;98885.84;;;9.86;100.00
43683;BME280;29285;52.128;21.060;2024-03-29T02:38:50;98899.96;;;9.88;100.00
43683;BME280;29285;52.128;21.060;2024-03-29T02:43:51;98913.77;;;9.84;100.00
43683;BME280;29285;52.128;21.060;2024-03-29T02:48:52;98929.45;;;9.82;100.00
43683;BME280;29285;52.128;21.060;2024-03-29T02:53:53;98946.38;;;9.83;100.00
43683;BME280;29285;52.128;21.060;2024-03-29T02:58:54;98957.50;;;9.82;100.00
43683;BME280;29285;52.128;21.060;2024-03-29T03:03:56;98958.23;;;9.81;100.00
43683;BME280;29285;52.128;21.060;2024-03-29T03:08:57;98967.41;;;9.81;100.00
43683;BME280;29285;52.128;21.060;2024-03-29T03:14:17;98975.84;;;9.82;100.00
43683;BME280;29285;52.128;21.060;2024-03-29T03:24:22;99004.07;;;9.83;100.00
43683;BME280;29285;52.128;21.060;2024-03-29T03:29:23;99014.23;;;9.80;100.00
43683;BME280;29285;52.128;21.060;2024-03-29T03:34:24;99015.02;;;9.77;100.00
43683;BME280;29285;52.128;21.060;2024-03-29T03:39:25;99027.73;;;9.75;100.00
43683;BME280;29285;52.128;21.060;2024-03-29T03:44:26;99037.46;;;9.73;100.00
43683;BME280;29285;52.128;21.060;2024-03-29T03:49:29;99049.70;;;9.70;100.00
43683;BME280;29285;52.128;21.060;2024-03-29T03:59:32;99064.80;;;9.58;100.00
43683;BME280;29285;52.128;21.060;2024-03-29T04:09:52;99074.52;;;9.52;100.00
43683;BME280;29285;52.128;21.060;2024-03-29T04:14:53;99071.45;;;9.50;100.00
43683;BME280;29285;52.128;21.060;2024-03-29T04:19:54;99082.41;;;9.49;100.00
43683;BME280;29285;52.128;21.060;2024-03-29T04:35:04;99118.76;;;9.37;100.00
43683;BME280;29285;52.128;21.060;2024-03-29T04:40:06;99132.09;;;9.32;100.00
43683;BME280;29285;52.128;21.060;2024-03-29T04:45:08;99135.27;;;9.23;100.00
43683;BME280;29285;52.128;21.060;2024-03-29T04:50:09;99135.55;;;9.14;100.00
43683;BME280;29285;52.128;21.060;2024-03-29T05:00:11;99155.41;;;9.15;100.00
43683;BME280;29285;52.128;21.060;2024-03-29T05:05:12;99164.00;;;9.17;100.00
43683;BME280;29285;52.128;21.060;2024-03-29T05:10:13;99167.03;;;9.14;100.00
43683;BME280;29285;52.128;21.060;2024-03-29T05:15:16;99176.91;;;9.20;100.00
43683;BME280;29285;52.128;21.060;2024-03-29T05:20:17;99176.22;;;9.26;100.00
43683;BME280;29285;52.128;21.060;2024-03-29T05:25:19;99181.42;;;9.37;100.00
43683;BME280;29285;52.128;21.060;2024-03-29T05:35:26;99177.71;;;9.63;100.00
43683;BME280;29285;52.128;21.060;2024-03-29T05:45:52;99185.73;;;9.90;100.00
43683;BME280;29285;52.128;21.060;2024-03-29T05:55:54;99201.52;;;10.11;100.00
43683;BME280;29285;52.128;21.060;2024-03-29T06:00:55;99197.55;;;10.22;100.00
43683;BME280;29285;52.128;21.060;2024-03-29T06:05:56;99199.25;;;10.33;100.00
43683;BME280;29285;52.128;21.060;2024-03-29T06:10:57;99197.29;;;10.35;100.00
43683;BME280;29285;52.128;21.060;2024-03-29T06:16:00;99193.61;;;10.41;100.00
43683;BME280;29285;52.128;21.060;2024-03-29T06:21:19;99197.36;;;10.50;100.00
43683;BME280;29285;52.128;21.060;2024-03-29T06:26:20;99215.83;;;10.52;100.00
43683;BME280;29285;52.128;21.060;2024-03-29T06:31:21;99232.09;;;10.64;100.00
43683;BME280;29285;52.128;21.060;2024-03-29T06:41:41;99245.98;;;10.78;100.00
43683;BME280;29285;52.128;21.060;2024-03-29T06:46:42;99252.29;;;10.82;100.00
43683;BME280;29285;52.128;21.060;2024-03-29T06:51:44;99264.80;;;10.86;100.00
43683;BME280;29285;52.128;21.060;2024-03-29T07:21:58;99284.42;;;11.41;100.00
43683;BME280;29285;52.128;21.060;2024-03-29T07:26:59;99271.91;;;11.56;100.00
43683;BME280;29285;52.128;21.060;2024-03-29T07:32:00;99280.52;;;11.71;100.00
43683;BME280;29285;52.128;21.060;2024-03-29T07:37:01;99284.77;;;11.84;100.00
43683;BME280;29285;52.128;21.060;2024-03-29T07:42:03;99281.86;;;11.96;100.00
43683;BME280;29285;52.128;21.060;2024-03-29T07:47:05;99278.51;;;11.84;100.00
43683;BME280;29285;52.128;21.060;2024-03-29T07:52:06;99280.70;;;11.96;100.00
43683;BME280;29285;52.128;21.060;2024-03-29T07:57:09;99288.27;;;11.74;100.00
43683;BME280;29285;52.128;21.060;2024-03-29T08:02:10;99287.63;;;11.63;100.00
43683;BME280;29285;52.128;21.060;2024-03-29T08:07:11;99298.75;;;12.05;100.00
43683;BME280;29285;52.128;21.060;2024-03-29T08:22:20;99329.41;;;12.53;100.00
43683;BME280;29285;52.128;21.060;2024-03-29T08:27:21;99323.91;;;12.61;100.00
43683;BME280;29285;52.128;21.060;2024-03-29T08:32:22;99318.32;;;12.61;100.00
43683;BME280;29285;52.128;21.060;2024-03-29T08:42:24;99317.56;;;12.58;100.00
43683;BME280;29285;52.128;21.060;2024-03-29T08:47:25;99325.69;;;12.64;100.00
43683;BME280;29285;52.128;21.060;2024-03-29T08:52:26;99324.61;;;12.99;100.00
43683;BME280;29285;52.128;21.060;2024-03-29T08:57:27;99329.89;;;13.22;100.00
43683;BME280;29285;52.128;21.060;2024-03-29T09:02:28;99340.00;;;13.30;100.00
43683;BME280;29285;52.128;21.060;2024-03-29T09:12:49;99346.40;;;13.40;100.00
43683;BME280;29285;52.128;21.060;2024-03-29T09:17:50;99349.20;;;13.56;100.00
43683;BME280;29285;52.128;21.060;2024-03-29T09:22:55;99354.50;;;13.54;100.00
43683;BME280;29285;52.128;21.060;2024-03-29T09:27:56;99361.55;;;13.48;100.00
43683;BME280;29285;52.128;21.060;2024-03-29T09:32:57;99370.48;;;13.64;100.00
43683;BME280;29285;52.128;21.060;2024-03-29T09:37:58;99363.00;;;13.56;100.00
43683;BME280;29285;52.128;21.060;2024-03-29T09:43:01;99359.13;;;13.36;100.00
43683;BME280;29285;52.128;21.060;2024-03-29T09:48:05;99356.39;;;13.18;100.00
43683;BME280;29285;52.128;21.060;2024-03-29T09:53:08;99350.52;;;13.17;100.00
43683;BME280;29285;52.128;21.060;2024-03-29T09:58:09;99365.21;;;13.23;100.00
43683;BME280;29285;52.128;21.060;2024-03-29T10:03:11;99365.85;;;13.17;100.00
43683;BME280;29285;52.128;21.060;2024-03-29T10:08:13;99365.26;;;13.22;100.00
43683;BME280;29285;52.128;21.060;2024-03-29T10:13:15;99365.00;;;13.41;100.00
43683;BME280;29285;52.128;21.060;2024-03-29T10:23:21;99361.48;;;13.29;100.00
43683;BME280;29285;52.128;21.060;2024-03-29T10:33:30;99353.98;;;13.50;100.00
43683;BME280;29285;52.128;21.060;2024-03-29T10:38:31;99363.63;;;13.69;100.00
43683;BME280;29285;52.128;21.060;2024-03-29T10:43:33;99361.90;;;13.88;100.00
43683;BME280;29285;52.128;21.060;2024-03-29T10:48:35;99373.02;;;14.09;100.00
43683;BME280;29285;52.128;21.060;2024-03-29T10:58:40;99367.14;;;14.19;100.00
43683;BME280;29285;52.128;21.060;2024-03-29T11:08:49;99376.20;;;14.38;100.00
43683;BME280;29285;52.128;21.060;2024-03-29T11:24:39;99365.92;;;15.25;100.00
43683;BME280;29285;52.128;21.060;2024-03-29T11:29:41;99364.26;;;15.40;100.00
43683;BME280;29285;52.128;21.060;2024-03-29T11:39:47;99347.75;;;15.79;100.00
43683;BME280;29285;52.128;21.060;2024-03-29T11:55:21;99364.83;;;15.94;100.00
43683;BME280;29285;52.128;21.060;2024-03-29T12:05:26;99368.86;;;16.30;100.00
43683;BME280;29285;52.128;21.060;2024-03-29T12:10:29;99362.55;;;16.46;100.00
43683;BME280;29285;52.128;21.060;2024-03-29T12:15:31;99367.45;;;16.46;100.00
43683;BME280;29285;52.128;21.060;2024-03-29T12:25:37;99372.86;;;16.59;100.00
43683;BME280;29285;52.128;21.060;2024-03-29T12:30:42;99369.58;;;16.77;100.00
43683;BME280;29285;52.128;21.060;2024-03-29T12:35:48;99378.89;;;16.79;100.00
43683;BME280;29285;52.128;21.060;2024-03-29T12:45:59;99381.83;;;17.23;100.00
43683;BME280;29285;52.128;21.060;2024-03-29T12:56:01;99386.58;;;17.62;100.00
43683;BME280;29285;52.128;21.060;2024-03-29T13:01:02;99386.96;;;17.93;100.00
43683;BME280;29285;52.128;21.060;2024-03-29T13:06:05;99389.07;;;17.99;100.00
43683;BME280;29285;52.128;21.060;2024-03-29T13:16:09;99383.19;;;17.92;100.00
43683;BME280;29285;52.128;21.060;2024-03-29T13:26:30;99384.66;;;18.39;100.00
43683;BME280;29285;52.128;21.060;2024-03-29T13:31:31;99388.02;;;18.55;100.00
43683;BME280;29285;52.128;21.060;2024-03-29T13:36:33;99393.67;;;18.47;100.00
43683;BME280;29285;52.128;21.060;2024-03-29T13:41:35;99398.24;;;18.21;100.00
43683;BME280;29285;52.128;21.060;2024-03-29T13:46:36;99403.02;;;17.97;100.00
43683;BME280;29285;52.128;21.060;2024-03-29T13:51:37;99409.26;;;18.08;100.00
43683;BME280;29285;52.128;21.060;2024-03-29T13:56:39;99414.87;;;17.73;100.00
43683;BME280;29285;52.128;21.060;2024-03-29T14:01:40;99405.40;;;17.67;100.00
43683;BME280;29285;52.128;21.060;2024-03-29T14:11:43;99389.59;;;17.70;100.00
43683;BME280;29285;52.128;21.060;2024-03-29T14:16:44;99389.88;;;17.71;100.00
43683;BME280;29285;52.128;21.060;2024-03-29T14:21:45;99377.59;;;17.59;100.00
43683;BME280;29285;52.128;21.060;2024-03-29T14:32:10;99378.77;;;17.69;100.00
43683;BME280;29285;52.128;21.060;2024-03-29T14:37:11;99379.03;;;17.56;100.00
43683;BME280;29285;52.128;21.060;2024-03-29T14:42:14;99382.93;;;17.43;100.00
43683;BME280;29285;52.128;21.060;2024-03-29T22:36:17;99355.08;;;12.10;100.00
43683;BME280;29285;52.128;21.060;2024-03-29T22:41:18;99371.61;;;12.14;100.00
43683;BME280;29285;52.128;21.060;2024-03-29T22:46:19;99379.89;;;12.12;100.00
43683;BME280;29285;52.128;21.060;2024-03-29T22:51:20;99387.67;;;12.08;100.00
43683;BME280;29285;52.128;21.060;2024-03-29T22:56:21;99382.11;;;12.02;100.00
43683;BME280;29285;52.128;21.060;2024-03-29T23:01:22;99381.48;;;12.01;100.00
43683;BME280;29285;52.128;21.060;2024-03-29T23:06:23;99384.95;;;11.96;100.00
43683;BME280;29285;52.128;21.060;2024-03-29T23:11:24;99384.71;;;11.98;100.00
43683;BME280;29285;52.128;21.060;2024-03-29T23:16:25;99381.38;;;11.99;100.00
43683;BME280;29285;52.128;21.060;2024-03-29T23:21:26;99386.02;;;11.95;100.00
43683;BME280;29285;52.128;21.060;2024-03-29T23:26:27;99383.90;;;11.91;100.00
43683;BME280;29285;52.128;21.060;2024-03-29T23:31:28;99388.82;;;11.90;100.00
43683;BME280;29285;52.128;21.060;2024-03-29T23:36:29;99395.97;;;11.89;100.00
43683;BME280;29285;52.128;21.060;2024-03-29T23:41:30;99393.26;;;11.88;100.00
43683;BME280;29285;52.128;21.060;2024-03-29T23:46:31;99398.16;;;11.87;100.00
43683;BME280;29285;52.128;21.060;2024-03-29T23:51:32;99396.02;;;11.88;100.00
43683;BME280;29285;52.128;21.060;2024-03-29T23:56:33;99395.07;;;11.90;100.00
